Tarbolton, United Kingdom
Current Conditions -  °F | °C
As of 1:50 AM on Saturday 22 Nov 2014 (Local Time) from EGPK Reporting Station
Light Rain Light Rain  
Wind Chill: 41°   Ceiling: Unl
Heat Index: 48°   Visibility: 6mi
Dew Point: 43°   Wind: 21mph
Humidity: 82%   Direction: 120°ESE
Pressure: 29.68"   Gusts: NA
Location:  55.51°N, 4.49°W
Report Text: EGPK 220150Z 12018KT 9000 -RA SCT030 09/06 Q1005
Loading
Personal Weather Stations






























Interactive Weather Map New forecast layout! Learn more

10-Day Weather Forecast

Advertisements
Track Severe Weather on mobile